Time;durP1;ratioP1;P1;durP2;ratioP2;P2;SDS_P1;SDS_P2;PMS_P1;PMS_P2;Temp;Humidity;BMP_temperature;BMP_pressure;BME280_temperature;BME280_humidity;BME280_pressure;Samples;Min_cycle;Max_cycle;Signal;HPM_P1;HPM_P2
2022/10/28 00:00:25;;;;;;;19.13;9.07;;;;;;;13.83;100.00;101837.31;7380941;19;20017;-70
2022/10/28 00:02:54;;;;;;;18.88;9.52;;;;;;;13.76;100.00;101838.97;7378655;19;20003;-67
2022/10/28 00:05:27;;;;;;;18.70;9.60;;;;;;;13.72;100.00;101834.50;7374225;19;20002;-67
2022/10/28 00:07:57;;;;;;;18.30;9.18;;;;;;;13.71;100.00;101830.09;7380239;19;20018;-71
2022/10/28 00:10:26;;;;;;;19.02;9.60;;;;;;;13.65;100.00;101830.88;7375872;19;20559;-70
2022/10/28 00:12:56;;;;;;;18.65;10.30;;;;;;;13.61;100.00;101828.16;7372467;19;20018;-69
2022/10/28 00:15:26;;;;;;;18.77;9.45;;;;;;;13.59;100.00;101832.53;7377320;19;20015;-70
2022/10/28 00:17:55;;;;;;;17.38;9.75;;;;;;;13.54;100.00;101826.28;7378605;19;20510;-70
2022/10/28 00:20:27;;;;;;;19.25;9.60;;;;;;;13.52;100.00;101820.13;7376077;19;20011;-70
2022/10/28 00:22:57;;;;;;;24.75;10.40;;;;;;;13.50;100.00;101819.22;7378814;19;20014;-67
2022/10/28 00:25:27;;;;;;;18.48;9.77;;;;;;;13.49;100.00;101820.97;7374012;19;20014;-68
2022/10/28 00:27:56;;;;;;;22.85;9.93;;;;;;;13.53;100.00;101821.88;7375110;19;20011;-68
2022/10/28 00:30:26;;;;;;;19.40;10.45;;;;;;;13.47;100.00;101824.44;7375597;19;20543;-68
2022/10/28 00:32:55;;;;;;;20.05;9.43;;;;;;;13.46;100.00;101836.72;7377076;19;20760;-68
2022/10/28 00:35:27;;;;;;;17.67;10.35;;;;;;;13.45;100.00;101829.69;7377009;19;20015;-68
2022/10/28 00:37:57;;;;;;;21.58;10.00;;;;;;;13.40;100.00;101826.97;7376633;19;20017;-68
2022/10/28 00:40:27;;;;;;;21.10;10.35;;;;;;;13.39;100.00;101835.75;7376735;19;20038;-68
2022/10/28 00:42:56;;;;;;;19.70;10.25;;;;;;;13.34;100.00;101829.50;7382019;19;20002;-68
2022/10/28 00:45:26;;;;;;;20.27;10.18;;;;;;;13.31;100.00;101826.81;7375133;19;20015;-68
2022/10/28 00:47:59;;;;;;;18.90;10.00;;;;;;;13.27;100.00;101814.44;7378608;19;20694;-68
2022/10/28 00:50:47;;;;;;;18.83;10.00;;;;;;;13.23;100.00;101817.00;7373314;19;20047;-68
2022/10/28 00:53:20;;;;;;;17.90;10.35;;;;;;;13.17;100.00;101823.03;7373851;19;20462;-68
2022/10/28 00:55:51;;;;;;;17.27;8.55;;;;;;;13.13;100.00;101826.44;7376182;19;20030;-68
2022/10/28 00:58:24;;;;;;;17.95;9.27;;;;;;;13.13;100.00;101822.94;7375345;19;20480;-68
2022/10/28 01:00:54;;;;;;;18.63;10.00;;;;;;;13.10;100.00;101826.38;7376369;19;20018;-68
2022/10/28 01:03:24;;;;;;;18.02;9.45;;;;;;;13.07;100.00;101821.06;7372863;19;20021;-69
2022/10/28 01:05:57;;;;;;;23.80;10.32;;;;;;;13.07;100.00;101823.69;7371524;19;20014;-68
2022/10/28 01:08:27;;;;;;;18.38;9.15;;;;;;;13.04;100.00;101807.84;7370899;19;20025;-68
2022/10/28 01:11:14;;;;;;;20.55;11.50;;;;;;;13.04;100.00;101815.75;7376086;19;20014;-68
2022/10/28 01:13:52;;;;;;;20.33;10.63;;;;;;;13.02;100.00;101807.81;7372860;19;20104;-68
2022/10/28 01:16:31;;;;;;;20.98;10.25;;;;;;;13.03;100.00;101806.94;7374795;19;20014;-68
2022/10/28 01:19:21;;;;;;;25.05;11.98;;;;;;;13.01;100.00;101799.88;7371244;19;20018;-68
2022/10/28 01:22:07;;;;;;;17.48;9.82;;;;;;;12.98;100.00;101802.47;7374153;19;20029;-68
2022/10/28 01:25:06;;;;;;;20.50;9.13;;;;;;;13.00;100.00;101800.75;7375239;19;20021;-68
2022/10/28 01:28:11;;;;;;;21.83;10.05;;;;;;;12.96;100.00;101788.38;7381360;19;20500;-68
2022/10/28 01:31:18;;;;;;;21.27;10.00;;;;;;;12.95;100.00;101791.88;7379621;19;20125;-68
2022/10/28 01:33:54;;;;;;;19.30;9.35;;;;;;;12.90;100.00;101796.16;7376629;19;20019;-68
2022/10/28 01:36:33;;;;;;;17.67;8.98;;;;;;;12.87;100.00;101798.72;7381317;19;20503;-68
2022/10/28 01:39:15;;;;;;;21.90;9.75;;;;;;;12.86;100.00;101795.22;7382786;19;20022;-68
2022/10/28 01:41:53;;;;;;;20.08;9.75;;;;;;;12.83;100.00;101795.16;7384439;19;20083;-69
2022/10/28 01:44:28;;;;;;;23.08;10.27;;;;;;;12.86;100.00;101794.31;7382468;19;20546;-69
2022/10/28 01:47:10;;;;;;;20.63;9.43;;;;;;;12.87;100.00;101782.94;7384268;19;20326;-71
2022/10/28 01:49:46;;;;;;;21.90;9.35;;;;;;;12.90;100.00;101783.88;7385359;19;20015;-72
2022/10/28 01:52:22;;;;;;;24.25;10.30;;;;;;;12.95;100.00;101784.84;7382239;19;20384;-72
2022/10/28 01:54:56;;;;;;;19.60;9.43;;;;;;;12.97;100.00;101776.97;7383320;19;20071;-72
2022/10/28 01:57:28;;;;;;;20.92;9.80;;;;;;;13.06;100.00;101782.41;7380671;19;20010;-72
2022/10/28 01:59:59;;;;;;;18.48;8.80;;;;;;;13.03;100.00;101783.25;7384839;19;20010;-72
2022/10/28 02:02:34;;;;;;;20.70;9.52;;;;;;;13.05;100.00;101775.38;7384687;19;20018;-72
2022/10/28 02:05:28;;;;;;;20.45;10.40;;;;;;;13.01;100.00;101763.00;7381266;19;20010;-72
2022/10/28 02:08:05;;;;;;;19.48;9.07;;;;;;;12.98;100.00;101761.22;7383710;19;20606;-72
2022/10/28 02:10:44;;;;;;;17.42;9.13;;;;;;;12.96;100.00;101764.69;7380766;19;20011;-72
2022/10/28 02:13:16;;;;;;;20.02;9.60;;;;;;;12.94;100.00;101769.91;7378158;19;20018;-71
2022/10/28 02:15:51;;;;;;;17.83;8.68;;;;;;;12.87;100.00;101772.41;7383864;19;20116;-72
2022/10/28 02:18:33;;;;;;;21.02;8.57;;;;;;;12.80;100.00;101767.88;7383457;19;20006;-72
2022/10/28 02:21:07;;;;;;;19.27;8.43;;;;;;;12.77;100.00;101764.34;7380884;19;20018;-72
2022/10/28 02:23:44;;;;;;;16.38;9.80;;;;;;;12.67;100.00;101757.13;7380917;19;20019;-72
2022/10/28 02:26:21;;;;;;;15.30;7.60;;;;;;;12.66;100.00;101764.97;7380109;19;20688;-72
2022/10/28 02:28:59;;;;;;;12.98;7.68;;;;;;;12.62;100.00;101758.78;7381809;19;20551;-69
2022/10/28 02:31:36;;;;;;;16.33;8.27;;;;;;;12.59;100.00;101758.72;7379591;19;20461;-69
2022/10/28 02:34:12;;;;;;;14.13;8.35;;;;;;;12.59;100.00;101763.09;7383175;19;20014;-69
2022/10/28 02:36:47;;;;;;;19.77;8.30;;;;;;;12.60;100.00;101771.00;7381325;19;20022;-69
2022/10/28 02:39:20;;;;;;;18.27;7.90;;;;;;;12.71;100.00;101769.47;7380522;19;20021;-69
2022/10/28 02:41:54;;;;;;;17.05;8.27;;;;;;;12.89;100.00;101768.94;7379383;19;20040;-69
2022/10/28 02:44:27;;;;;;;18.30;8.07;;;;;;;12.94;100.00;101772.53;7383654;19;20018;-72
2022/10/28 02:47:01;;;;;;;20.25;9.52;;;;;;;13.04;100.00;101757.81;7384599;19;20015;-69
2022/10/28 02:49:37;;;;;;;18.67;9.25;;;;;;;13.02;100.00;101760.41;7377955;19;20010;-69
2022/10/28 02:52:08;;;;;;;18.10;8.40;;;;;;;13.15;100.00;101756.25;7383959;19;20014;-69
2022/10/28 02:54:44;;;;;;;21.00;9.13;;;;;;;13.24;100.00;101748.53;7379241;19;20046;-69
2022/10/28 02:57:17;;;;;;;17.00;8.60;;;;;;;13.23;100.00;101741.50;7378640;19;20022;-69
2022/10/28 02:59:54;;;;;;;17.00;8.87;;;;;;;13.20;100.00;101740.56;7381144;19;20021;-69
2022/10/28 03:02:24;;;;;;;19.92;8.27;;;;;;;13.17;100.00;101738.75;7381609;19;20025;-69
2022/10/28 03:05:00;;;;;;;17.98;8.85;;;;;;;13.24;100.00;101740.63;7379745;19;20018;-69
2022/10/28 03:07:29;;;;;;;16.20;7.80;;;;;;;13.25;100.00;101739.78;7379407;19;20018;-69
2022/10/28 03:09:59;;;;;;;21.45;8.38;;;;;;;13.29;100.00;101738.97;7384962;19;20030;-72
2022/10/28 03:12:29;;;;;;;19.13;8.30;;;;;;;13.31;100.00;101737.25;7379847;19;20014;-72
2022/10/28 03:14:59;;;;;;;17.90;8.05;;;;;;;13.46;100.00;101741.88;7380715;19;20097;-73
2022/10/28 03:17:29;;;;;;;19.48;8.48;;;;;;;13.51;100.00;101736.66;7379312;19;20011;-72
2022/10/28 03:20:01;;;;;;;19.75;8.65;;;;;;;13.50;100.00;101734.91;7380760;19;20528;-71
2022/10/28 03:22:31;;;;;;;18.85;7.82;;;;;;;13.47;100.00;101742.75;7381980;19;20019;-73
2022/10/28 03:25:00;;;;;;;16.45;8.40;;;;;;;13.61;100.00;101730.66;7380308;19;20622;-73
2022/10/28 03:27:30;;;;;;;16.25;8.43;;;;;;;13.63;100.00;101739.47;7383115;19;20367;-71
2022/10/28 03:30:00;;;;;;;20.02;8.60;;;;;;;13.59;100.00;101727.09;7380460;19;20006;-68
2022/10/28 03:32:29;;;;;;;19.98;8.90;;;;;;;13.60;100.00;101729.75;7381645;19;20017;-68
2022/10/28 03:35:01;;;;;;;19.23;8.55;;;;;;;13.56;100.00;101722.66;7381649;19;20082;-69
2022/10/28 03:37:31;;;;;;;18.52;9.10;;;;;;;13.60;100.00;101729.75;7382638;19;20019;-68
2022/10/28 03:40:06;;;;;;;21.95;8.93;;;;;;;13.59;100.00;101733.25;7380672;19;20014;-68
2022/10/28 03:42:36;;;;;;;16.48;8.02;;;;;;;13.56;100.00;101732.31;7379315;19;20106;-68
2022/10/28 03:45:10;;;;;;;18.17;9.38;;;;;;;13.60;100.00;101731.50;7383752;19;20049;-68
2022/10/28 03:47:41;;;;;;;17.25;7.63;;;;;;;13.52;100.00;101736.66;7379189;19;20043;-69
2022/10/28 03:50:13;;;;;;;18.60;7.68;;;;;;;13.49;100.00;101735.75;7376161;19;20705;-68
2022/10/28 03:52:45;;;;;;;17.08;8.30;;;;;;;13.51;100.00;101732.28;7378373;19;20014;-68
2022/10/28 03:55:14;;;;;;;18.52;7.55;;;;;;;13.58;100.00;101725.31;7376544;19;20133;-69
2022/10/28 03:57:44;;;;;;;19.08;7.60;;;;;;;13.61;100.00;101717.47;7371803;19;20022;-68
2022/10/28 04:00:16;;;;;;;16.02;7.65;;;;;;;13.55;100.00;101707.72;7376390;19;20018;-68
2022/10/28 04:02:51;;;;;;;22.40;7.78;;;;;;;13.52;100.00;101706.81;7378366;19;20015;-68
2022/10/28 04:05:24;;;;;;;15.35;7.18;;;;;;;13.59;100.00;101709.53;7374978;19;20528;-68
2022/10/28 04:07:54;;;;;;;15.35;7.05;;;;;;;13.60;100.00;101713.94;7377456;19;20022;-68
2022/10/28 04:10:24;;;;;;;15.90;7.82;;;;;;;13.59;100.00;101713.91;7374475;19;20022;-68
2022/10/28 04:12:53;;;;;;;16.88;7.50;;;;;;;13.63;100.00;101718.38;7374288;19;20020;-68
2022/10/28 04:15:23;;;;;;;20.70;7.43;;;;;;;13.68;100.00;101716.69;7378370;19;20030;-68
2022/10/28 04:17:53;;;;;;;15.90;7.35;;;;;;;13.68;100.00;101714.06;7375159;19;20014;-68
2022/10/28 04:20:27;;;;;;;15.57;7.03;;;;;;;13.66;100.00;101711.41;7373500;19;20021;-68
2022/10/28 04:22:57;;;;;;;15.07;8.55;;;;;;;13.74;100.00;101712.41;7376290;19;20018;-68
2022/10/28 04:25:29;;;;;;;17.08;6.88;;;;;;;13.83;100.00;101706.38;7372988;19;20244;-68
2022/10/28 04:27:59;;;;;;;18.55;7.38;;;;;;;13.82;100.00;101706.34;7374780;19;20015;-68
2022/10/28 04:30:29;;;;;;;16.45;7.03;;;;;;;13.79;100.00;101707.19;7374586;19;20025;-68
2022/10/28 04:32:59;;;;;;;14.43;7.28;;;;;;;13.75;100.00;101702.72;7372982;19;20018;-69
2022/10/28 04:35:31;;;;;;;17.70;7.20;;;;;;;13.84;100.00;101699.34;7374466;19;20022;-69
2022/10/28 04:38:01;;;;;;;19.98;6.85;;;;;;;13.79;100.00;101703.66;7373464;19;20014;-68
2022/10/28 04:40:31;;;;;;;19.75;7.82;;;;;;;13.82;100.00;101709.88;7372698;19;20018;-71
2022/10/28 04:43:00;;;;;;;17.60;8.13;;;;;;;13.80;100.00;101711.59;7372956;19;20549;-71
2022/10/28 04:45:30;;;;;;;18.40;7.97;;;;;;;13.85;100.00;101725.72;7376141;19;20031;-72
2022/10/28 04:48:00;;;;;;;17.98;6.60;;;;;;;13.84;100.00;101729.22;7374923;19;20017;-72
2022/10/28 04:50:32;;;;;;;14.35;6.72;;;;;;;13.70;100.00;101729.03;7375891;19;20011;-73
2022/10/28 04:53:02;;;;;;;16.80;6.55;;;;;;;13.71;100.00;101727.28;7376546;19;20022;-71
2022/10/28 04:55:32;;;;;;;17.70;7.05;;;;;;;13.61;100.00;101720.09;7375295;19;20015;-71
2022/10/28 04:58:02;;;;;;;14.52;7.13;;;;;;;13.60;100.00;101711.31;7374623;19;20014;-71
2022/10/28 05:00:32;;;;;;;16.92;6.88;;;;;;;13.57;100.00;101700.72;7383818;19;20022;-72
2022/10/28 05:03:03;;;;;;;13.30;6.43;;;;;;;13.57;100.00;101707.75;7382447;19;20029;-71
2022/10/28 05:05:36;;;;;;;18.63;7.07;;;;;;;13.60;100.00;101702.50;7383470;19;20018;-72
2022/10/28 05:08:06;;;;;;;14.98;7.05;;;;;;;13.50;100.00;101705.91;7382303;19;20021;-72
2022/10/28 05:10:35;;;;;;;17.13;7.15;;;;;;;13.43;100.00;101709.31;7381797;19;20038;-71
2022/10/28 05:13:05;;;;;;;16.13;7.28;;;;;;;13.62;100.00;101699.03;7379777;19;20015;-71
2022/10/28 05:15:35;;;;;;;15.70;6.95;;;;;;;13.65;100.00;101698.19;7387822;19;20006;-72
2022/10/28 05:18:04;;;;;;;15.55;7.22;;;;;;;13.75;100.00;101695.72;7384142;19;20362;-72
2022/10/28 05:20:37;;;;;;;19.08;6.88;;;;;;;13.85;100.00;101701.09;7380958;19;20043;-72
2022/10/28 05:23:06;;;;;;;14.20;6.07;;;;;;;13.89;100.00;101702.94;7381184;19;20006;-69
2022/10/28 05:25:36;;;;;;;13.25;7.05;;;;;;;13.87;100.00;101697.63;7380599;19;20341;-69
2022/10/28 05:28:06;;;;;;;17.73;6.68;;;;;;;13.79;100.00;101709.81;7378589;19;20007;-69
2022/10/28 05:30:36;;;;;;;15.00;6.60;;;;;;;13.77;100.00;101706.28;7381038;19;20010;-69
2022/10/28 05:33:06;;;;;;;16.15;6.88;;;;;;;13.79;100.00;101704.53;7381847;19;20022;-69
2022/10/28 05:35:38;;;;;;;13.95;5.65;;;;;;;13.77;100.00;101701.00;7377305;19;20018;-69
2022/10/28 05:38:08;;;;;;;16.38;7.38;;;;;;;13.79;100.00;101706.28;7381470;19;20021;-69
2022/10/28 05:40:38;;;;;;;14.73;6.50;;;;;;;13.74;100.00;101699.22;7375380;19;20018;-69
2022/10/28 05:43:08;;;;;;;16.48;6.75;;;;;;;13.74;100.00;101707.13;7380403;19;20014;-69
2022/10/28 05:45:38;;;;;;;15.77;7.03;;;;;;;13.77;100.00;101705.38;7380988;19;20014;-69
2022/10/28 05:48:08;;;;;;;18.20;6.60;;;;;;;13.69;100.00;101700.91;7378561;19;20006;-68
2022/10/28 05:50:40;;;;;;;16.30;6.63;;;;;;;13.71;100.00;101700.91;7381251;19;20051;-68
2022/10/28 05:53:10;;;;;;;18.55;8.45;;;;;;;13.77;100.00;101695.72;7381732;19;20045;-69
2022/10/28 05:55:40;;;;;;;14.98;6.53;;;;;;;13.79;100.00;101696.63;7376797;19;20026;-70
2022/10/28 05:58:16;;;;;;;15.75;6.15;;;;;;;13.85;100.00;101691.44;7378933;19;20014;-73
2022/10/28 06:00:45;;;;;;;15.82;6.90;;;;;;;13.83;100.00;101694.94;7379412;19;20018;-70
2022/10/28 06:03:15;;;;;;;16.73;7.38;;;;;;;13.91;100.00;101688.00;7374274;19;20029;-70
2022/10/28 06:05:48;;;;;;;20.00;6.53;;;;;;;13.86;100.00;101690.59;7379943;19;20029;-70
2022/10/28 06:08:17;;;;;;;16.17;6.55;;;;;;;13.90;100.00;101691.50;7377498;19;20007;-70
2022/10/28 06:10:52;;;;;;;15.57;6.50;;;;;;;13.93;100.00;101687.16;7376287;19;20018;-71
2022/10/28 06:13:22;;;;;;;18.52;6.53;;;;;;;14.08;100.00;101686.47;7380269;19;20015;-70
2022/10/28 06:15:55;;;;;;;14.27;7.65;;;;;;;13.96;100.00;101689.84;7379823;19;20018;-70
2022/10/28 06:18:26;;;;;;;15.95;7.07;;;;;;;13.96;100.00;101681.03;7376745;19;20024;-71
2022/10/28 06:21:00;;;;;;;14.98;6.32;;;;;;;13.99;100.00;101684.59;7382055;19;20319;-71
2022/10/28 06:23:30;;;;;;;13.75;6.78;;;;;;;13.93;100.00;101687.16;7377991;19;20018;-69
2022/10/28 06:26:00;;;;;;;15.38;6.38;;;;;;;13.96;100.00;101681.94;7380826;19;20011;-69
2022/10/28 06:28:30;;;;;;;14.63;6.07;;;;;;;14.02;100.00;101683.75;7374098;19;20015;-69
2022/10/28 06:31:03;;;;;;;18.55;7.10;;;;;;;14.03;100.00;101682.88;7379124;19;20015;-70
2022/10/28 06:33:34;;;;;;;16.02;6.78;;;;;;;13.96;100.00;101673.13;7375419;19;20010;-70
2022/10/28 06:36:07;;;;;;;18.77;7.22;;;;;;;13.94;100.00;101678.38;7377551;19;20018;-69
2022/10/28 06:38:37;;;;;;;16.70;6.75;;;;;;;13.92;100.00;101682.75;7378774;19;20017;-69
2022/10/28 06:41:06;;;;;;;13.32;7.03;;;;;;;13.83;100.00;101680.00;7378229;19;20011;-70
2022/10/28 06:43:36;;;;;;;19.42;6.85;;;;;;;13.88;100.00;101687.97;7383198;19;20039;-70
2022/10/28 06:46:06;;;;;;;16.77;6.75;;;;;;;13.90;100.00;101686.25;7379255;19;20100;-70
2022/10/28 06:48:36;;;;;;;22.30;7.07;;;;;;;13.87;100.00;101686.19;7376023;19;20082;-70
2022/10/28 06:51:08;;;;;;;20.23;6.95;;;;;;;13.79;100.00;101693.13;7379497;19;20373;-71
2022/10/28 06:53:38;;;;;;;16.13;6.22;;;;;;;13.75;100.00;101689.56;7371768;19;20019;-70
2022/10/28 06:56:08;;;;;;;16.15;6.65;;;;;;;13.70;100.00;101702.66;7378190;19;20099;-70
2022/10/28 06:58:38;;;;;;;16.05;7.10;;;;;;;13.71;100.00;101703.56;7374951;19;20096;-71
2022/10/28 07:01:08;;;;;;;16.95;7.18;;;;;;;13.75;100.00;101705.38;7374647;19;20018;-70
2022/10/28 07:03:37;;;;;;;18.17;6.55;;;;;;;13.73;100.00;101707.09;7375410;19;20025;-73
2022/10/28 07:06:10;;;;;;;15.50;6.53;;;;;;;13.73;100.00;101715.00;7374270;19;20017;-72
2022/10/28 07:08:40;;;;;;;17.48;7.47;;;;;;;13.80;100.00;101715.97;7374436;19;20106;-72
2022/10/28 07:11:17;;;;;;;20.73;7.45;;;;;;;13.84;100.00;101699.34;7374914;19;20011;-72
2022/10/28 07:13:47;;;;;;;17.17;7.20;;;;;;;13.89;100.00;101706.44;7372868;19;20796;-72
2022/10/28 07:16:17;;;;;;;18.23;6.90;;;;;;;13.93;100.00;101713.53;7376299;19;20432;-73
2022/10/28 07:18:47;;;;;;;16.63;7.82;;;;;;;13.94;100.00;101717.94;7378993;19;20015;-72
2022/10/28 07:21:23;;;;;;;14.82;6.65;;;;;;;13.97;100.00;101710.06;7372256;19;20019;-71
2022/10/28 07:23:52;;;;;;;19.17;8.40;;;;;;;14.11;100.00;101706.72;7373615;19;20019;-74
2022/10/28 07:26:22;;;;;;;17.08;7.32;;;;;;;14.19;100.00;101703.31;7370543;19;20018;-74
2022/10/28 07:28:52;;;;;;;18.50;6.55;;;;;;;14.23;100.00;101705.13;7368784;19;20098;-72
2022/10/28 07:31:22;;;;;;;16.58;7.07;;;;;;;14.29;100.00;101718.41;7373874;19;20306;-72
2022/10/28 07:33:54;;;;;;;16.45;7.47;;;;;;;14.37;100.00;101722.00;7369029;19;20025;-73
2022/10/28 07:36:27;;;;;;;21.20;7.13;;;;;;;14.44;100.00;101725.63;7372822;19;20669;-72
2022/10/28 07:38:57;;;;;;;19.45;7.13;;;;;;;14.51;100.00;101723.97;7371565;19;20279;-72
2022/10/28 07:41:27;;;;;;;18.52;6.78;;;;;;;14.47;100.00;101730.94;7371982;19;20368;-73
2022/10/28 07:43:56;;;;;;;13.90;6.22;;;;;;;14.50;100.00;101732.75;7375190;19;20010;-74
2022/10/28 07:46:26;;;;;;;17.40;6.57;;;;;;;14.55;100.00;101733.69;7370854;19;20436;-73
2022/10/28 07:48:56;;;;;;;16.73;6.72;;;;;;;14.58;100.00;101729.28;7372912;19;20024;-73
2022/10/28 07:51:29;;;;;;;14.50;7.18;;;;;;;14.62;100.00;101735.50;7372417;19;20010;-73
2022/10/28 07:53:59;;;;;;;;;;;;;;;14.63;100.00;101734.63;7374532;19;20019;-72
2022/10/28 07:56:29;;;;;;;15.73;7.05;;;;;;;14.66;100.00;101735.53;7374413;19;19918;-73
2022/10/28 07:58:59;;;;;;;15.77;6.85;;;;;;;14.67;100.00;101736.41;7370461;19;20052;-73
2022/10/28 08:01:29;;;;;;;16.52;7.35;;;;;;;14.73;100.00;101732.09;7372174;19;20444;-72
2022/10/28 08:03:59;;;;;;;20.75;7.45;;;;;;;14.73;100.00;101737.38;7374922;19;20015;-72
2022/10/28 08:06:31;;;;;;;19.52;7.82;;;;;;;14.80;100.00;101733.03;7373387;19;20010;-72
2022/10/28 08:09:01;;;;;;;14.02;6.95;;;;;;;14.84;100.00;101732.19;7374236;19;20022;-72
2022/10/28 08:11:31;;;;;;;17.05;7.93;;;;;;;14.90;100.00;101734.03;7378257;19;20047;-72
2022/10/28 08:14:00;;;;;;;17.60;7.30;;;;;;;15.01;100.00;101732.38;7375908;19;20014;-73
2022/10/28 08:16:30;;;;;;;17.15;6.68;;;;;;;15.06;100.00;101735.94;7375510;19;20018;-72
2022/10/28 08:19:00;;;;;;;16.30;6.47;;;;;;;15.11;100.00;101728.94;7380542;19;20014;-72
2022/10/28 08:21:38;;;;;;;19.98;6.82;;;;;;;15.21;100.00;101733.44;7377827;19;20039;-72
2022/10/28 08:24:09;;;;;;;18.45;7.25;;;;;;;15.25;100.00;101732.59;7375091;19;20014;-72
2022/10/28 08:26:39;;;;;;;16.67;6.50;;;;;;;15.32;100.00;101734.41;7375612;19;20019;-71
2022/10/28 08:29:11;;;;;;;15.50;6.18;;;;;;;15.40;100.00;101730.94;7373124;19;20023;-72
2022/10/28 08:31:41;;;;;;;17.92;7.25;;;;;;;15.46;100.00;101736.28;7375992;19;20022;-72
2022/10/28 08:34:11;;;;;;;15.10;6.57;;;;;;;15.54;100.00;101731.94;7372959;19;20014;-71
2022/10/28 08:36:43;;;;;;;19.08;6.13;;;;;;;15.63;100.00;101738.16;7379361;19;20010;-71
2022/10/28 08:39:13;;;;;;;14.20;5.95;;;;;;;15.63;100.00;101737.28;7377023;19;20450;-71
2022/10/28 08:41:50;;;;;;;17.77;6.60;;;;;;;15.78;100.00;101731.19;7378012;19;20247;-72
2022/10/28 08:44:59;;;;;;;22.70;7.35;;;;;;;15.78;100.00;101729.44;7378493;19;20062;-72
2022/10/28 08:47:40;;;;;;;14.25;7.15;;;;;;;15.85;100.00;101728.59;7375687;19;20150;-72
2022/10/28 08:50:15;;;;;;;15.57;6.50;;;;;;;15.89;100.00;101725.09;7375935;19;20007;-71
2022/10/28 08:53:29;;;;;;;16.45;6.80;;;;;;;15.96;100.00;101729.53;7379131;19;20098;-71
2022/10/28 08:57:01;;;;;;;20.30;6.65;;;;;;;16.00;100.00;101725.16;7374965;19;20362;-72
2022/10/28 09:07:22;;;;;;;17.27;6.68;;;;;;;16.29;100.00;101739.41;7373400;19;20366;-72
2022/10/28 09:17:41;;;;;;;18.40;6.43;;;;;;;16.65;100.00;101728.06;7381593;19;20014;-72
2022/10/28 09:38:49;;;;;;;16.02;7.05;;;;;;;17.57;100.00;101723.69;7381123;19;20015;-72
2022/10/28 09:59:56;;;;;;;17.08;6.68;;;;;;;18.16;100.00;101698.75;7374160;19;20018;-79
2022/10/28 10:02:29;;;;;;;18.17;6.93;;;;;;;18.29;100.00;101699.59;7376471;19;20011;-79
2022/10/28 10:05:03;;;;;;;15.65;5.90;;;;;;;18.36;100.00;101690.69;7376966;19;20073;-78
2022/10/28 10:07:39;;;;;;;13.82;5.85;;;;;;;18.43;100.00;101692.44;7377754;19;20014;-79
2022/10/28 10:10:15;;;;;;;16.42;6.90;;;;;;;18.49;100.00;101700.38;7375770;19;20014;-79
2022/10/28 10:12:45;;;;;;;18.15;6.13;;;;;;;18.55;100.00;101713.63;7379474;19;20018;-79
2022/10/28 10:15:27;;;;;;;19.10;7.53;;;;;;;18.70;100.00;101725.09;7379072;19;20055;-80
2022/10/28 10:18:00;;;;;;;17.42;6.53;;;;;;;18.68;100.00;101727.75;7380549;19;20038;-82
2022/10/28 10:20:48;;;;;;;14.30;6.13;;;;;;;18.73;100.00;101717.06;7379375;19;20022;-79
2022/10/28 10:23:28;;;;;;;13.15;5.75;;;;;;;18.73;100.00;101728.56;7378842;19;20016;-79
2022/10/28 10:45:24;;;;;;;;;;;;;;;;;;;;;
2022/10/28 10:52:47;;;;;;;17.17;5.72;;;;;;;19.13;100.00;101721.19;7374302;19;20014;-71
2022/10/28 11:00:19;;;;;;;;;;;;;;;;;;;;;
2022/10/28 11:03:52;;;;;;;16.45;5.75;;;;;;;19.17;100.00;101720.28;7368734;19;20122;-71
2022/10/28 11:10:47;;;;;;;12.88;5.13;;;;;;;19.22;100.00;101736.19;7369024;19;20473;-71
2022/10/28 11:25:25;;;;;;;16.88;5.18;;;;;;;19.34;100.00;101760.03;7373431;19;20129;-72
2022/10/28 11:33:16;;;;;;;;;;;;;;;;;;;;;
2022/10/28 11:40:15;;;;;;;12.30;5.00;;;;;;;19.39;100.00;101750.25;7373502;19;20015;-71
2022/10/28 11:43:00;;;;;;;13.77;4.85;;;;;;;19.44;100.00;101745.75;7370337;19;20007;-71
2022/10/28 11:45:44;;;;;;;18.40;5.68;;;;;;;19.39;100.00;101747.56;7365964;19;20015;-71
2022/10/28 11:48:55;;;;;;;15.18;5.57;;;;;;;19.48;100.00;101757.25;7368794;19;20010;-72
2022/10/28 11:51:43;;;;;;;18.42;6.03;;;;;;;19.50;100.00;101763.44;7371191;19;20027;-71
2022/10/28 11:54:41;;;;;;;15.30;5.47;;;;;;;19.53;100.00;101758.13;7369330;19;20151;-70
2022/10/28 11:57:21;;;;;;;13.80;5.78;;;;;;;19.54;100.00;101766.09;7367893;19;20466;-70
2022/10/28 12:00:14;;;;;;;15.05;5.57;;;;;;;19.58;100.00;101764.28;7370558;19;20603;-70
2022/10/28 12:03:03;;;;;;;13.75;5.65;;;;;;;19.58;100.00;101756.31;7369507;19;20011;-71
2022/10/28 12:05:48;;;;;;;15.25;5.63;;;;;;;19.61;100.00;101758.94;7370374;19;20014;-73
2022/10/28 12:08:59;;;;;;;15.85;5.40;;;;;;;19.70;100.00;101757.97;7366371;19;20025;-71
2022/10/28 12:12:00;;;;;;;13.35;5.00;;;;;;;19.79;100.00;101764.06;7370383;19;20014;-73
2022/10/28 12:15:04;;;;;;;14.05;5.53;;;;;;;19.88;100.00;101771.94;7366929;19;20063;-72
2022/10/28 12:17:45;;;;;;;15.27;5.80;;;;;;;19.95;100.00;101780.75;7367611;19;20385;-72
2022/10/28 12:20:30;;;;;;;12.82;5.18;;;;;;;19.96;100.00;101776.31;7369970;19;20132;-73
2022/10/28 12:23:25;;;;;;;12.20;4.80;;;;;;;19.98;100.00;101774.50;7366801;19;20138;-73
2022/10/28 12:26:27;;;;;;;14.75;4.82;;;;;;;20.04;100.00;101785.09;7368113;19;20014;-72
2022/10/28 12:29:10;;;;;;;13.65;5.70;;;;;;;19.99;100.00;101792.25;7369041;19;20137;-72
2022/10/28 12:32:06;;;;;;;13.05;5.20;;;;;;;19.89;100.00;101795.00;7363075;19;20798;-69
2022/10/28 12:34:43;;;;;;;17.90;6.72;;;;;;;19.89;100.00;101791.47;7364567;19;20646;-75
2022/10/28 12:37:17;;;;;;;15.50;5.57;;;;;;;19.96;100.00;101797.63;7369445;19;20177;-75
2022/10/28 12:39:57;;;;;;;17.27;5.60;;;;;;;20.05;100.00;101808.16;7371170;19;20025;-76
2022/10/28 12:42:33;;;;;;;18.02;5.47;;;;;;;20.12;100.00;101799.22;7367936;19;20014;-77
2022/10/28 12:45:08;;;;;;;18.33;6.72;;;;;;;20.10;100.00;101799.22;7370245;19;20015;-77
2022/10/28 12:47:46;;;;;;;17.40;5.70;;;;;;;20.11;100.00;101813.44;7369972;19;20017;-77
2022/10/28 12:50:22;;;;;;;12.88;6.05;;;;;;;20.07;100.00;101814.38;7374343;19;20047;-77
2022/10/28 12:53:00;;;;;;;16.23;5.63;;;;;;;19.99;100.00;101818.88;7370848;19;20018;-70
2022/10/28 12:55:36;;;;;;;14.25;5.45;;;;;;;19.94;100.00;101821.59;7375204;19;20015;-72
2022/10/28 12:58:16;;;;;;;18.70;5.75;;;;;;;19.90;100.00;101809.22;7375220;19;20504;-72
2022/10/28 13:00:50;;;;;;;11.07;5.22;;;;;;;20.00;100.00;101812.66;7375215;19;20007;-72
2022/10/28 13:03:20;;;;;;;18.40;5.13;;;;;;;20.01;100.00;101817.97;7377591;19;20014;-71
2022/10/28 13:05:54;;;;;;;17.70;5.20;;;;;;;19.93;100.00;101827.81;7377232;19;20881;-71
2022/10/28 13:08:43;;;;;;;14.40;4.88;;;;;;;20.04;100.00;101825.03;7375008;19;20010;-71
2022/10/28 13:11:49;;;;;;;16.45;4.88;;;;;;;19.98;100.00;101827.75;7368376;19;20014;-71
2022/10/28 13:14:33;;;;;;;14.32;4.40;;;;;;;19.98;100.00;101823.31;7376153;19;20022;-71
2022/10/28 13:17:20;;;;;;;14.32;5.25;;;;;;;20.05;100.00;101814.38;7378270;19;20019;-71
2022/10/28 13:20:01;;;;;;;13.82;4.95;;;;;;;20.16;100.00;101823.13;7376045;19;20453;-71
2022/10/28 13:23:01;;;;;;;13.77;4.55;;;;;;;20.28;100.00;101838.09;7383318;19;20468;-71
2022/10/28 13:25:44;;;;;;;17.40;5.75;;;;;;;20.33;100.00;101846.94;7379316;19;20432;-71
2022/10/28 13:28:16;;;;;;;20.65;5.25;;;;;;;20.30;100.00;101846.97;7383146;19;20014;-71
2022/10/28 13:31:01;;;;;;;13.65;4.60;;;;;;;20.22;100.00;101854.16;7378412;19;20018;-71
2022/10/28 13:33:33;;;;;;;11.35;4.45;;;;;;;20.13;100.00;101854.25;7378900;19;20141;-71
2022/10/28 13:36:13;;;;;;;11.20;4.25;;;;;;;20.06;100.00;101863.19;7377938;19;20010;-71